createdAt,value
2023-01-13T00:01:16.139Z,96478.88
2023-01-13T00:03:43.124Z,96472.47
2023-01-13T00:06:13.664Z,96485.56
2023-01-13T00:08:40.194Z,96478.44
2023-01-13T00:11:06.816Z,96470.03
2023-01-13T00:13:35.451Z,96469.28
2023-01-13T00:16:03.898Z,96476.00
2023-01-13T00:18:31.074Z,96471.56
2023-01-13T00:21:11.478Z,96457.53
2023-01-13T00:23:38.108Z,96469.13
2023-01-13T00:26:07.645Z,96471.41
2023-01-13T00:28:34.356Z,96455.44
2023-01-13T00:31:30.480Z,96458.00
2023-01-13T00:33:58.497Z,96454.03
2023-01-13T00:36:25.140Z,96455.88
2023-01-13T00:38:51.697Z,96452.97
2023-01-13T00:41:20.831Z,96439.25
2023-01-13T00:43:48.021Z,96435.31
2023-01-13T00:46:17.309Z,96445.81
2023-01-13T00:48:43.886Z,96444.16
2023-01-13T00:51:19.435Z,96435.91
2023-01-13T00:53:48.987Z,96431.50
2023-01-13T00:56:22.106Z,96425.25
2023-01-13T00:58:58.816Z,96426.63
2023-01-13T01:01:25.821Z,96419.78
2023-01-13T01:03:53.966Z,96432.88
2023-01-13T01:06:23.430Z,96427.84
2023-01-13T01:08:50.155Z,96433.03
2023-01-13T01:11:20.451Z,96422.81
2023-01-13T01:13:47.666Z,96429.66
2023-01-13T01:16:16.250Z,96430.75
2023-01-13T01:18:45.557Z,96417.78
2023-01-13T01:21:13.020Z,96431.22
2023-01-13T01:23:40.498Z,96425.72
2023-01-13T01:26:18.581Z,96434.53
2023-01-13T01:28:45.647Z,96421.00
2023-01-13T01:31:33.150Z,96413.53
2023-01-13T01:34:01.155Z,96422.19
2023-01-13T01:36:30.202Z,96412.91
2023-01-13T01:38:58.623Z,96420.53
2023-01-13T01:41:28.338Z,96427.09
2023-01-13T01:44:32.518Z,96421.75
2023-01-13T01:46:59.089Z,96421.44
2023-01-13T01:49:31.233Z,96414.44
2023-01-13T01:52:06.595Z,96408.63
2023-01-13T01:54:44.025Z,96411.06
2023-01-13T01:57:14.689Z,96408.19
2023-01-13T01:59:41.870Z,96415.94
2023-01-13T02:02:08.945Z,96403.75
2023-01-13T02:04:40.619Z,96391.13
2023-01-13T02:07:07.301Z,96408.19
2023-01-13T02:09:35.552Z,96393.84
2023-01-13T02:12:20.405Z,96387.63
2023-01-13T02:14:47.134Z,96392.97
2023-01-13T02:17:28.533Z,96394.47
2023-01-13T02:20:16.567Z,96393.09
2023-01-13T02:23:04.698Z,96386.13
2023-01-13T02:25:46.464Z,96402.56
2023-01-13T02:28:33.507Z,96374.38
2023-01-13T02:31:25.216Z,96364.31
2023-01-13T02:34:10.977Z,96370.59
2023-01-13T02:36:49.455Z,96371.47
2023-01-13T02:39:27.875Z,96367.66
2023-01-13T02:42:27.427Z,96373.00
2023-01-13T02:45:04.552Z,96361.13
2023-01-13T02:47:34.288Z,96353.97
2023-01-13T02:50:05.073Z,96356.09
2023-01-13T02:52:46.138Z,96343.75
2023-01-13T02:55:18.141Z,96349.56
2023-01-13T02:57:46.565Z,96355.03
2023-01-13T03:00:14.912Z,96363.09
2023-01-13T03:02:41.284Z,96355.94
2023-01-13T03:05:08.199Z,96358.53
2023-01-13T03:07:58.609Z,96351.97
2023-01-13T03:10:52.651Z,96353.63
2023-01-13T03:13:41.532Z,96350.91
2023-01-13T03:16:28.180Z,96348.00
2023-01-13T03:19:00.497Z,96346.34
2023-01-13T03:22:06.164Z,96349.38
2023-01-13T03:24:39.158Z,96329.28
2023-01-13T03:27:19.491Z,96339.63
2023-01-13T03:30:04.831Z,96316.03
2023-01-13T03:32:37.784Z,96324.22
2023-01-13T03:35:12.289Z,96325.28
2023-01-13T03:37:42.253Z,96333.81
2023-01-13T03:40:17.289Z,96330.47
2023-01-13T03:43:06.649Z,96326.31
2023-01-13T03:45:35.600Z,96324.69
2023-01-13T03:48:08.673Z,96321.94
2023-01-13T03:50:41.104Z,96324.84
2023-01-13T03:53:13.747Z,96318.13
2023-01-13T03:55:48.608Z,96334.16
2023-01-13T03:58:19.335Z,96329.88
2023-01-13T04:01:00.077Z,96326.81
2023-01-13T04:03:36.050Z,96317.25
2023-01-13T04:06:40.283Z,96317.53
2023-01-13T04:09:18.619Z,96308.72
2023-01-13T04:11:51.800Z,96316.34
2023-01-13T04:14:20.794Z,96304.59
2023-01-13T04:16:48.909Z,96308.44
2023-01-13T04:19:15.328Z,96300.19
2023-01-13T04:21:41.768Z,96305.09
2023-01-13T04:24:08.752Z,96316.38
2023-01-13T04:26:35.099Z,96321.41
2023-01-13T04:29:01.457Z,96326.72
2023-01-13T04:31:27.852Z,96320.50
2023-01-13T04:33:54.222Z,96324.16
2023-01-13T04:36:25.015Z,96326.56
2023-01-13T04:38:51.557Z,96335.13
2023-01-13T04:41:17.966Z,96366.78
2023-01-13T04:43:44.345Z,96399.66
2023-01-13T04:46:10.782Z,96398.13
2023-01-13T04:48:37.227Z,96382.13
2023-01-13T04:51:03.728Z,96376.50
2023-01-13T04:53:30.091Z,96400.66
2023-01-13T04:55:56.438Z,96391.50
2023-01-13T04:58:22.871Z,96395.41
2023-01-13T05:00:50.940Z,96380.31
2023-01-13T05:03:18.620Z,96380.47
2023-01-13T05:05:44.970Z,96372.97
2023-01-13T05:08:11.366Z,96376.00
2023-01-13T05:10:37.771Z,96374.75
2023-01-13T05:13:22.571Z,96362.69
2023-01-13T05:16:09.235Z,96369.59
2023-01-13T05:18:36.881Z,96373.22
2023-01-13T05:21:03.336Z,96383.09
2023-01-13T05:23:48.366Z,96389.03
2023-01-13T05:26:14.706Z,96395.75
2023-01-13T05:28:41.063Z,96383.03
2023-01-13T05:31:07.495Z,96396.72
2023-01-13T05:33:35.761Z,96392.03
2023-01-13T05:36:03.399Z,96391.75
2023-01-13T05:38:29.745Z,96383.47
2023-01-13T05:41:17.833Z,96377.84
2023-01-13T05:43:44.171Z,96386.66
2023-01-13T05:46:11.798Z,96371.56
2023-01-13T05:48:40.559Z,96366.81
2023-01-13T05:51:09.485Z,96367.97
2023-01-13T05:53:36.150Z,96347.22
2023-01-13T05:56:06.846Z,96357.09
2023-01-13T05:58:34.042Z,96352.66
2023-01-13T06:01:08.280Z,96369.00
2023-01-13T06:03:35.719Z,96363.06
2023-01-13T06:06:03.973Z,96373.69
2023-01-13T06:08:31.636Z,96389.19
2023-01-13T06:10:58.038Z,96397.78
2023-01-13T06:13:25.317Z,96398.25
2023-01-13T06:15:51.831Z,96373.81
2023-01-13T06:18:18.670Z,96358.03
2023-01-13T06:20:47.042Z,96371.41
2023-01-13T06:23:13.557Z,96396.06
2023-01-13T06:25:58.470Z,96396.66
2023-01-13T06:28:24.856Z,96387.00
2023-01-13T06:30:56.122Z,96365.53
2023-01-13T06:33:28.876Z,96381.06
2023-01-13T06:35:58.146Z,96387.41
2023-01-13T06:38:27.053Z,96410.34
2023-01-13T06:40:54.303Z,96406.59
2023-01-13T06:43:20.910Z,96400.31
2023-01-13T06:45:52.312Z,96405.94
2023-01-13T06:48:21.927Z,96413.94
2023-01-13T06:50:48.291Z,96408.63
2023-01-13T06:53:14.688Z,96407.28
2023-01-13T06:55:41.129Z,96401.66
2023-01-13T06:58:07.679Z,96394.50
2023-01-13T07:00:37.232Z,96396.88
2023-01-13T07:03:13.009Z,96410.91
2023-01-13T07:05:40.340Z,96420.56
2023-01-13T07:08:07.305Z,96419.63
2023-01-13T07:10:34.740Z,96402.94
2023-01-13T07:13:21.268Z,96409.72
2023-01-13T07:16:02.256Z,96417.91
2023-01-13T07:18:31.703Z,96424.41
2023-01-13T07:21:04.574Z,96427.25
2023-01-13T07:23:33.780Z,96433.84
2023-01-13T07:26:15.836Z,96437.66
2023-01-13T07:28:42.248Z,96448.25
2023-01-13T07:31:17.689Z,96450.53
2023-01-13T07:33:44.697Z,96459.91
2023-01-13T07:36:11.266Z,96451.59
2023-01-13T07:38:39.726Z,96473.47
2023-01-13T07:41:25.796Z,96474.31
2023-01-13T07:43:52.438Z,96456.97
2023-01-13T07:46:19.199Z,96466.78
2023-01-13T07:48:47.264Z,96460.31
2023-01-13T07:51:13.630Z,96470.13
2023-01-13T07:53:40.051Z,96468.97
2023-01-13T07:56:07.417Z,96477.47
2023-01-13T07:58:35.541Z,96487.41
2023-01-13T08:01:08.898Z,96491.72
2023-01-13T08:03:35.350Z,96496.78
2023-01-13T08:06:02.294Z,96490.94
2023-01-13T08:08:28.678Z,96492.94
2023-01-13T08:10:58.770Z,96493.81
2023-01-13T08:13:25.135Z,96496.38
2023-01-13T08:15:54.348Z,96502.28
2023-01-13T08:18:22.362Z,96517.19
2023-01-13T08:20:49.743Z,96515.00
2023-01-13T08:23:16.221Z,96497.91
2023-01-13T08:25:42.566Z,96503.94
2023-01-13T08:28:08.962Z,96516.72
2023-01-13T08:30:35.482Z,96503.38
2023-01-13T08:33:02.016Z,96496.66
2023-01-13T08:35:28.377Z,96492.28
2023-01-13T08:37:54.776Z,96500.28
2023-01-13T08:40:22.216Z,96485.00
2023-01-13T08:42:48.958Z,96501.91
2023-01-13T08:45:15.385Z,96496.97
2023-01-13T08:47:41.882Z,96502.69
2023-01-13T08:50:09.144Z,96511.09
2023-01-13T08:52:35.516Z,96509.66
2023-01-13T08:55:01.984Z,96503.84
2023-01-13T08:57:28.729Z,96504.03
2023-01-13T08:59:55.164Z,96516.16
2023-01-13T09:02:23.536Z,96520.91
2023-01-13T09:04:50.357Z,96517.47
2023-01-13T09:07:17.338Z,96512.13
2023-01-13T09:09:43.751Z,96514.75
2023-01-13T09:12:33.648Z,96515.28
2023-01-13T09:15:00.686Z,96515.94
2023-01-13T09:17:27.484Z,96528.97
2023-01-13T09:19:53.939Z,96536.22
2023-01-13T09:22:20.642Z,96537.06
2023-01-13T09:24:47.352Z,96541.84
2023-01-13T09:27:15.543Z,96552.75
2023-01-13T09:29:42.165Z,96563.34
2023-01-13T09:32:12.320Z,96556.06
2023-01-13T09:34:57.763Z,96556.13
2023-01-13T09:37:24.222Z,96548.91
2023-01-13T09:39:50.703Z,96554.66
2023-01-13T09:43:09.582Z,96560.84
2023-01-13T09:45:50.265Z,96547.28
2023-01-13T09:48:22.080Z,96558.19
2023-01-13T09:51:03.007Z,96551.63
2023-01-13T09:53:33.921Z,96566.59
2023-01-13T09:56:00.794Z,96545.28
2023-01-13T09:58:27.159Z,96543.00
2023-01-13T10:01:38.659Z,96558.84
2023-01-13T10:04:11.129Z,96558.75
2023-01-13T10:06:39.510Z,96550.13
2023-01-13T10:09:06.229Z,96557.97
2023-01-13T10:11:58.188Z,96566.97
2023-01-13T10:14:35.651Z,96557.34
2023-01-13T10:17:17.968Z,96556.66
2023-01-13T10:19:51.242Z,96557.44
2023-01-13T10:22:27.352Z,96557.03
2023-01-13T10:25:21.419Z,96569.25
2023-01-13T10:27:50.342Z,96572.53
2023-01-13T10:30:39.990Z,96568.28
2023-01-13T10:33:20.691Z,96570.75
2023-01-13T10:35:54.886Z,96578.44
2023-01-13T10:38:40.918Z,96573.97
2023-01-13T10:41:16.578Z,96572.44
2023-01-13T10:43:44.315Z,96579.19
2023-01-13T10:46:18.373Z,96584.38
2023-01-13T10:48:59.022Z,96587.81
2023-01-13T10:51:28.116Z,96618.31
2023-01-13T10:53:57.565Z,96606.59
2023-01-13T10:56:27.276Z,96601.66
2023-01-13T10:59:26.812Z,96578.25
2023-01-13T11:01:54.691Z,96599.09
2023-01-13T11:04:28.964Z,96585.13
2023-01-13T11:06:56.480Z,96570.19
2023-01-13T11:09:23.610Z,96573.19
2023-01-13T11:11:55.945Z,96575.38
2023-01-13T11:14:36.905Z,96587.16
2023-01-13T11:17:11.734Z,96579.88
2023-01-13T11:19:50.580Z,96588.53
2023-01-13T11:22:27.466Z,96601.38
2023-01-13T11:25:02.608Z,96597.97
2023-01-13T11:27:55.682Z,96599.59
2023-01-13T11:30:33.288Z,96599.44
2023-01-13T11:33:14.798Z,96598.47
2023-01-13T11:35:53.319Z,96600.56
2023-01-13T11:38:42.846Z,96614.97
2023-01-13T11:41:15.591Z,96617.50
2023-01-13T11:43:50.498Z,96621.44
2023-01-13T11:46:17.125Z,96628.78
2023-01-13T11:48:43.709Z,96631.28
2023-01-13T11:51:29.528Z,96630.63
2023-01-13T11:54:17.994Z,96643.56
2023-01-13T11:57:11.135Z,96615.66
2023-01-13T12:00:18.867Z,96620.91
2023-01-13T12:02:53.790Z,96610.56
2023-01-13T12:05:44.255Z,96616.50
2023-01-13T12:08:48.684Z,96622.84
2023-01-13T12:11:24.665Z,96602.22
2023-01-13T12:13:56.880Z,96591.41
2023-01-13T12:16:26.326Z,96590.72
2023-01-13T12:19:11.137Z,96591.81
2023-01-13T12:22:15.630Z,96591.56
2023-01-13T12:25:03.988Z,96605.59
2023-01-13T12:27:52.189Z,96603.00
2023-01-13T12:30:51.756Z,96597.13
2023-01-13T12:33:43.079Z,96605.50
2023-01-13T12:36:15.514Z,96611.28
2023-01-13T12:38:48.117Z,96600.94
2023-01-13T12:41:59.288Z,96621.81
2023-01-13T12:44:25.886Z,96617.78
2023-01-13T12:46:56.033Z,96634.31
2023-01-13T12:49:33.810Z,96629.66
2023-01-13T12:52:12.555Z,96634.28
2023-01-13T12:54:44.899Z,96640.38
2023-01-13T12:57:21.735Z,96637.69
2023-01-13T13:00:03.138Z,96648.78
2023-01-13T13:02:41.204Z,96643.16
2023-01-13T13:05:22.742Z,96667.84
2023-01-13T13:07:53.084Z,96621.38
2023-01-13T13:10:32.477Z,96674.88
2023-01-13T13:13:19.187Z,96671.63
2023-01-13T13:15:47.896Z,96658.59
2023-01-13T13:18:16.972Z,96659.56
2023-01-13T13:21:03.530Z,96654.69
2023-01-13T13:23:33.181Z,96656.25
2023-01-13T13:26:21.358Z,96656.41
2023-01-13T13:29:06.792Z,96662.38
2023-01-13T13:31:55.521Z,96663.69
2023-01-13T13:34:31.249Z,96657.19
2023-01-13T13:37:26.887Z,96666.47
2023-01-13T13:40:12.759Z,96677.06
2023-01-13T13:43:13.433Z,96680.50
2023-01-13T13:46:09.964Z,96685.19
2023-01-13T13:48:37.195Z,96686.81
2023-01-13T13:51:25.059Z,96683.94
2023-01-13T13:53:52.062Z,96681.28
2023-01-13T13:56:22.802Z,96690.38
2023-01-13T13:58:50.223Z,96711.47
2023-01-13T14:01:24.244Z,96694.56
2023-01-13T14:04:10.967Z,96698.69
2023-01-13T14:06:37.328Z,96697.34
2023-01-13T14:09:04.062Z,96687.59
2023-01-13T14:11:32.648Z,96679.94
2023-01-13T14:14:04.480Z,96692.00
2023-01-13T14:16:33.866Z,96682.13
2023-01-13T14:19:00.980Z,96684.22
2023-01-13T14:21:29.593Z,96697.03
2023-01-13T14:24:01.554Z,96689.59
2023-01-13T14:26:30.667Z,96702.38
2023-01-13T14:28:59.418Z,96705.59
2023-01-13T14:31:26.459Z,96709.50
2023-01-13T14:33:56.932Z,96720.78
2023-01-13T14:36:32.189Z,96726.31
2023-01-13T14:39:04.492Z,96737.81
2023-01-13T14:41:33.051Z,96732.03
2023-01-13T14:44:02.262Z,96740.19
2023-01-13T14:46:45.578Z,96736.22
2023-01-13T14:49:36.031Z,96743.69
2023-01-13T14:52:06.517Z,96736.81
2023-01-13T14:55:11.634Z,96746.19
2023-01-13T14:57:41.296Z,96742.75
2023-01-13T15:00:13.789Z,96756.78
2023-01-13T15:02:53.314Z,96762.69
2023-01-13T15:05:19.716Z,96770.72
2023-01-13T15:07:54.417Z,96759.91
2023-01-13T15:10:24.837Z,96755.13
2023-01-13T15:12:54.159Z,96771.50
2023-01-13T15:15:23.236Z,96785.66
2023-01-13T15:17:49.609Z,96779.03
2023-01-13T15:20:19.093Z,96782.19
2023-01-13T15:22:46.362Z,96787.34
2023-01-13T15:25:14.022Z,96796.53
2023-01-13T15:27:42.930Z,96800.44
2023-01-13T15:30:17.616Z,96794.75
2023-01-13T15:32:44.363Z,96816.91
2023-01-13T15:35:15.182Z,96813.91
2023-01-13T15:37:42.547Z,96819.84
2023-01-13T15:40:14.176Z,96809.53
2023-01-13T15:42:59.242Z,96819.47
2023-01-13T15:45:44.968Z,96808.44
2023-01-13T15:48:11.677Z,96796.44
2023-01-13T15:50:38.135Z,96811.38
2023-01-13T15:53:05.524Z,96812.22
2023-01-13T15:55:37.639Z,96830.03
2023-01-13T15:58:04.563Z,96812.34
2023-01-13T16:00:31.076Z,96818.25
2023-01-13T16:02:57.679Z,96829.81
2023-01-13T16:05:24.703Z,96811.72
2023-01-13T16:07:51.063Z,96822.53
2023-01-13T16:10:23.549Z,96833.88
2023-01-13T16:12:50.404Z,96842.00
2023-01-13T16:15:18.241Z,96842.69
2023-01-13T16:17:46.323Z,96839.97
2023-01-13T16:20:15.287Z,96838.09
2023-01-13T16:22:41.774Z,96847.56
2023-01-13T16:25:15.759Z,96848.81
2023-01-13T16:27:42.190Z,96838.09
2023-01-13T16:30:20.769Z,96856.25
2023-01-13T16:32:47.588Z,96865.84
2023-01-13T16:35:14.038Z,96852.94
2023-01-13T16:37:40.437Z,96859.53
2023-01-13T16:40:07.365Z,96858.66
2023-01-13T16:42:33.712Z,96881.50
2023-01-13T16:45:07.007Z,96866.38
2023-01-13T16:47:34.557Z,96882.06
2023-01-13T16:50:01.010Z,96872.88
2023-01-13T16:52:27.459Z,96873.13
2023-01-13T16:54:53.823Z,96883.03
2023-01-13T16:57:20.186Z,96880.94
2023-01-13T16:59:46.563Z,96906.94
2023-01-13T17:02:14.801Z,96888.97
2023-01-13T17:04:41.327Z,96898.03
2023-01-13T17:07:08.368Z,96918.53
2023-01-13T17:09:34.763Z,96919.19
2023-01-13T17:12:01.360Z,96911.66
2023-01-13T17:14:27.753Z,96924.72
2023-01-13T17:16:57.149Z,96927.59
2023-01-13T17:19:24.049Z,96932.59
2023-01-13T17:21:53.106Z,96930.84
2023-01-13T17:24:19.863Z,96929.59
2023-01-13T17:26:49.189Z,96929.91
2023-01-13T17:29:17.947Z,96937.03
2023-01-13T17:31:45.001Z,96939.72
2023-01-13T17:34:12.551Z,96935.91
2023-01-13T17:36:39.043Z,96963.66
2023-01-13T17:39:05.441Z,96947.41
2023-01-13T17:41:31.791Z,96948.84
2023-01-13T17:43:58.164Z,96955.75
2023-01-13T17:46:24.565Z,96950.34
2023-01-13T17:48:52.628Z,96964.75
2023-01-13T17:51:20.106Z,96971.94
2023-01-13T17:53:46.611Z,96977.56
2023-01-13T17:56:14.923Z,96974.19
2023-01-13T17:58:41.927Z,96970.84
2023-01-13T18:01:13.337Z,96984.81
2023-01-13T18:03:40.063Z,96966.72
2023-01-13T18:06:09.344Z,96974.19
2023-01-13T18:08:35.746Z,96970.97
2023-01-13T18:11:02.914Z,96982.31
2023-01-13T18:13:31.345Z,96980.97
2023-01-13T18:16:12.936Z,97004.13
2023-01-13T18:18:41.572Z,97008.34
2023-01-13T18:21:31.737Z,97006.94
2023-01-13T18:24:16.512Z,96995.31
2023-01-13T18:27:01.381Z,96987.81
2023-01-13T18:29:27.818Z,97000.41
2023-01-13T18:31:54.172Z,97000.03
2023-01-13T18:34:20.961Z,97005.28
2023-01-13T18:36:47.343Z,97002.75
2023-01-13T18:39:13.854Z,97005.63
2023-01-13T18:41:58.881Z,97004.84
2023-01-13T18:44:25.361Z,97000.47
2023-01-13T18:46:51.722Z,97005.69
2023-01-13T18:49:18.145Z,97000.78
2023-01-13T18:51:44.565Z,97011.03
2023-01-13T18:54:10.914Z,97000.53
2023-01-13T18:56:37.473Z,97008.97
2023-01-13T18:59:04.178Z,97022.53
2023-01-13T19:01:30.660Z,97035.44
2023-01-13T19:03:59.523Z,97034.91
2023-01-13T19:06:27.722Z,97042.00
2023-01-13T19:08:55.756Z,97053.38
2023-01-13T19:11:23.755Z,97045.88
2023-01-13T19:13:51.334Z,97046.00
2023-01-13T19:16:19.722Z,97048.53
2023-01-13T19:18:46.081Z,97046.88
2023-01-13T19:21:12.514Z,97051.66
2023-01-13T19:23:38.891Z,97057.09
2023-01-13T19:26:07.810Z,97062.53
2023-01-13T19:28:35.038Z,97066.44
2023-01-13T19:31:03.499Z,97079.28
2023-01-13T19:33:33.622Z,97080.97
2023-01-13T19:36:01.127Z,97081.28
2023-01-13T19:38:27.777Z,97081.34
2023-01-13T19:40:59.142Z,97103.56
2023-01-13T19:43:44.870Z,97090.50
2023-01-13T19:46:12.483Z,97094.81
2023-01-13T19:48:39.875Z,97097.16
2023-01-13T19:51:06.573Z,97113.66
2023-01-13T19:53:33.256Z,97101.03
2023-01-13T19:55:59.748Z,97118.38
2023-01-13T19:58:26.912Z,97124.88
2023-01-13T20:00:54.197Z,97133.38
2023-01-13T20:03:24.244Z,97123.13
2023-01-13T20:05:54.088Z,97134.47
2023-01-13T20:08:22.282Z,97122.09
2023-01-13T20:10:49.489Z,97138.31
2023-01-13T20:13:16.510Z,97128.03
2023-01-13T20:15:43.880Z,97135.69
2023-01-13T20:18:10.314Z,97147.03
2023-01-13T20:20:37.589Z,97144.97
2023-01-13T20:23:03.965Z,97131.16
2023-01-13T20:25:30.504Z,97145.75
2023-01-13T20:27:57.007Z,97139.03
2023-01-13T20:30:23.810Z,97135.03
2023-01-13T20:32:50.217Z,97148.38
2023-01-13T20:35:17.139Z,97154.59
2023-01-13T20:37:44.002Z,97157.25
2023-01-13T20:40:14.357Z,97179.16
2023-01-13T20:42:46.484Z,97164.69
2023-01-13T20:45:17.712Z,97164.47
2023-01-13T20:47:45.000Z,97165.03
2023-01-13T20:50:12.117Z,97167.84
2023-01-13T20:52:38.665Z,97180.94
2023-01-13T20:55:08.631Z,97179.38
2023-01-13T20:57:35.540Z,97184.81
2023-01-13T21:00:02.784Z,97185.84
2023-01-13T21:02:29.511Z,97187.19
2023-01-13T21:04:56.129Z,97194.16
2023-01-13T21:07:22.573Z,97184.91
2023-01-13T21:09:48.939Z,97196.19
2023-01-13T21:12:34.979Z,97202.31
2023-01-13T21:15:17.249Z,97206.44
2023-01-13T21:18:07.373Z,97202.66
2023-01-13T21:20:35.583Z,97206.16
2023-01-13T21:23:03.472Z,97218.81
2023-01-13T21:25:31.430Z,97225.78
2023-01-13T21:28:08.221Z,97222.44
2023-01-13T21:30:36.009Z,97209.88
2023-01-13T21:33:03.953Z,97217.09
2023-01-13T21:35:30.710Z,97224.81
2023-01-13T21:37:57.058Z,97227.44
2023-01-13T21:40:23.517Z,97227.94
2023-01-13T21:43:08.207Z,97223.81
2023-01-13T21:45:52.994Z,97233.63
2023-01-13T21:48:19.357Z,97241.88
2023-01-13T21:50:45.764Z,97245.47
2023-01-13T21:53:12.142Z,97242.41
2023-01-13T21:55:38.552Z,97249.09
2023-01-13T21:58:11.541Z,97249.28
2023-01-13T22:00:38.980Z,97237.25
2023-01-13T22:03:07.596Z,97239.72
2023-01-13T22:05:34.342Z,97237.91
2023-01-13T22:08:00.789Z,97242.81
2023-01-13T22:10:29.857Z,97247.47
2023-01-13T22:12:59.828Z,97259.53
2023-01-13T22:15:28.226Z,97265.94
2023-01-13T22:17:55.694Z,97252.56
2023-01-13T22:20:22.994Z,97252.78
2023-01-13T22:22:49.667Z,97245.53
2023-01-13T22:25:17.165Z,97263.81
2023-01-13T22:27:44.725Z,97252.03
2023-01-13T22:30:14.038Z,97266.69
2023-01-13T22:32:40.580Z,97272.91
2023-01-13T22:35:09.148Z,97286.53
2023-01-13T22:37:35.969Z,97282.69
2023-01-13T22:40:03.891Z,97278.50
2023-01-13T22:42:30.327Z,97279.97
2023-01-13T22:44:56.689Z,97286.75
2023-01-13T22:47:23.121Z,97279.00
2023-01-13T22:49:49.551Z,97292.88
2023-01-13T22:52:17.114Z,97293.84
2023-01-13T22:54:43.874Z,97291.03
2023-01-13T22:57:10.513Z,97298.34
2023-01-13T22:59:37.985Z,97283.13
2023-01-13T23:02:04.331Z,97304.78
2023-01-13T23:04:30.873Z,97302.41
2023-01-13T23:06:57.296Z,97286.69
2023-01-13T23:09:23.748Z,97299.75
2023-01-13T23:11:50.164Z,97311.06
2023-01-13T23:14:16.522Z,97304.94
2023-01-13T23:16:42.986Z,97296.69
2023-01-13T23:19:10.499Z,97314.41
2023-01-13T23:21:38.021Z,97302.81
2023-01-13T23:24:05.410Z,97308.97
2023-01-13T23:26:32.505Z,97308.22
2023-01-13T23:29:01.228Z,97309.78
2023-01-13T23:31:27.845Z,97316.75
2023-01-13T23:33:54.253Z,97323.47
2023-01-13T23:36:23.890Z,97312.91
2023-01-13T23:38:51.378Z,97318.13
2023-01-13T23:41:20.659Z,97312.16
2023-01-13T23:43:58.420Z,97327.03
2023-01-13T23:46:25.766Z,97318.88
2023-01-13T23:48:52.941Z,97322.44
2023-01-13T23:51:21.203Z,97318.03
2023-01-13T23:53:49.918Z,97302.63
2023-01-13T23:56:19.311Z,97321.16
2023-01-13T23:58:46.275Z,97324.00
